createdAt,value
2022-09-04T00:04:21.673Z,14.66
2022-09-04T00:09:35.679Z,14.94
2022-09-04T00:14:50.201Z,14.88
2022-09-04T00:19:59.651Z,14.88
2022-09-04T00:25:13.968Z,14.84
2022-09-04T00:30:24.635Z,14.70
2022-09-04T00:35:34.058Z,14.47
2022-09-04T00:40:45.007Z,14.55
2022-09-04T00:46:05.223Z,14.68
2022-09-04T00:51:24.620Z,14.74
2022-09-04T00:57:02.814Z,14.67
2022-09-04T01:02:21.070Z,14.23
2022-09-04T01:07:41.471Z,14.47
2022-09-04T01:12:52.650Z,14.31
2022-09-04T01:18:10.365Z,14.22
2022-09-04T01:23:59.155Z,14.21
2022-09-04T01:29:21.703Z,14.18
2022-09-04T01:34:38.466Z,14.11
2022-09-04T01:39:49.911Z,14.12
2022-09-04T01:44:57.550Z,14.16
2022-09-04T01:50:09.796Z,14.05
2022-09-04T01:55:29.352Z,14.03
2022-09-04T02:00:47.388Z,13.90
2022-09-04T02:06:09.085Z,13.85
2022-09-04T02:11:20.591Z,13.88
2022-09-04T02:16:46.803Z,14.06
2022-09-04T02:22:01.322Z,14.14
2022-09-04T02:27:11.441Z,14.13
2022-09-04T02:32:27.823Z,13.91
2022-09-04T02:37:43.610Z,14.00
2022-09-04T02:43:01.751Z,13.90
2022-09-04T02:48:17.682Z,14.08
2022-09-04T02:53:32.468Z,13.91
2022-09-04T02:58:50.530Z,13.88
2022-09-04T03:04:04.991Z,14.11
2022-09-04T03:09:15.915Z,13.90
2022-09-04T03:14:26.742Z,14.02
2022-09-04T03:19:42.030Z,14.11
2022-09-04T03:25:07.001Z,14.09
2022-09-04T03:30:17.652Z,14.15
2022-09-04T03:35:32.986Z,13.92
2022-09-04T03:40:43.194Z,14.07
2022-09-04T03:45:58.328Z,14.08
2022-09-04T03:51:16.148Z,13.94
2022-09-04T03:56:46.905Z,13.62
2022-09-04T04:02:01.408Z,13.72
2022-09-04T04:07:15.783Z,13.48
2022-09-04T04:12:37.499Z,13.51
2022-09-04T04:17:59.374Z,13.48
2022-09-04T04:23:38.301Z,13.63
2022-09-04T04:29:02.898Z,13.58
2022-09-04T04:34:20.751Z,13.47
2022-09-04T04:39:38.501Z,13.50
2022-09-04T04:45:17.219Z,13.42
2022-09-04T04:50:29.271Z,15.25
2022-09-04T04:55:50.943Z,14.68
2022-09-04T05:01:06.334Z,13.96
2022-09-04T05:06:19.484Z,14.71
2022-09-04T05:11:37.940Z,16.03
2022-09-04T05:16:55.789Z,17.07
2022-09-04T05:22:14.770Z,17.62
2022-09-04T05:27:42.751Z,17.88
2022-09-04T05:32:59.264Z,18.85
2022-09-04T05:38:13.444Z,19.30
2022-09-04T05:43:37.015Z,18.47
2022-09-04T05:48:48.716Z,18.41
2022-09-04T05:54:18.551Z,19.21
2022-09-04T05:59:58.649Z,19.05
2022-09-04T06:05:19.457Z,19.86
2022-09-04T06:10:33.345Z,21.18
2022-09-04T06:15:55.430Z,21.65
2022-09-04T06:21:15.990Z,22.99
2022-09-04T06:26:50.318Z,22.79
2022-09-04T06:32:23.237Z,23.24
2022-09-04T06:37:39.644Z,23.79
2022-09-04T06:43:10.562Z,26.25
2022-09-04T06:48:31.514Z,25.78
2022-09-04T06:54:12.224Z,25.97
2022-09-04T06:59:31.714Z,24.60
2022-09-04T07:04:53.544Z,24.76
2022-09-04T07:10:07.225Z,25.91
2022-09-04T07:15:47.108Z,27.63
2022-09-04T07:21:04.940Z,25.57
2022-09-04T07:26:28.588Z,26.20
2022-09-04T07:31:39.923Z,24.38
2022-09-04T07:37:03.226Z,26.58
2022-09-04T07:42:16.182Z,25.47
2022-09-04T07:47:31.163Z,25.01
2022-09-04T07:53:04.149Z,23.64
2022-09-04T07:58:46.961Z,25.56
2022-09-04T08:04:15.201Z,25.03
2022-09-04T08:09:44.201Z,24.89
2022-09-04T08:14:58.062Z,24.90
2022-09-04T08:20:16.698Z,24.81
2022-09-04T08:25:31.977Z,24.72
2022-09-04T08:30:47.269Z,24.21
2022-09-04T08:36:03.545Z,23.91
2022-09-04T08:41:58.474Z,23.21
2022-09-04T08:47:36.403Z,24.40
2022-09-04T08:53:10.475Z,24.47
2022-09-04T08:58:55.308Z,25.26
2022-09-04T09:04:17.622Z,25.08
2022-09-04T09:10:12.321Z,24.33
2022-09-04T09:15:53.082Z,24.44
2022-09-04T09:21:10.623Z,23.96
2022-09-04T09:26:29.711Z,24.13
2022-09-04T09:32:10.063Z,24.96
2022-09-04T09:37:45.027Z,25.46
2022-09-04T09:43:14.662Z,25.11
2022-09-04T09:49:03.863Z,25.52
2022-09-04T09:54:51.060Z,25.00
2022-09-04T10:00:18.534Z,24.55
2022-09-04T10:05:47.810Z,25.29
2022-09-04T10:11:13.636Z,25.96
2022-09-04T10:16:47.985Z,24.54
2022-09-04T10:22:30.211Z,25.32
2022-09-04T10:28:17.924Z,25.47
2022-09-04T10:33:44.843Z,25.08
2022-09-04T10:39:19.425Z,25.50
2022-09-04T10:44:53.882Z,24.99
2022-09-04T10:50:16.176Z,25.61
2022-09-04T10:55:36.581Z,25.03
2022-09-04T11:00:51.419Z,25.18
2022-09-04T11:06:33.171Z,25.58
2022-09-04T11:12:03.313Z,26.60
2022-09-04T11:17:40.079Z,25.88
2022-09-04T11:23:27.219Z,25.68
2022-09-04T11:29:00.682Z,25.68
2022-09-04T11:34:39.166Z,25.11
2022-09-04T11:40:23.194Z,24.74
2022-09-04T11:45:54.953Z,24.96
2022-09-04T11:51:43.073Z,24.78
2022-09-04T11:57:10.030Z,25.32
2022-09-04T12:02:50.966Z,25.13
2022-09-04T12:08:10.027Z,24.70
2022-09-04T12:13:44.069Z,24.72
2022-09-04T12:19:21.384Z,24.80
2022-09-04T12:24:54.032Z,24.32
2022-09-04T12:30:23.791Z,24.60
2022-09-04T12:36:08.456Z,24.90
2022-09-04T12:41:19.349Z,24.36
2022-09-04T12:47:03.904Z,24.87
2022-09-04T12:52:19.341Z,25.21
2022-09-04T12:57:39.659Z,25.24
2022-09-04T13:02:58.864Z,25.73
2022-09-04T13:08:19.553Z,25.32
2022-09-04T13:13:39.427Z,24.70
2022-09-04T13:19:00.373Z,24.78
2022-09-04T13:24:28.826Z,25.28
2022-09-04T13:29:45.455Z,25.48
2022-09-04T13:35:08.529Z,24.65
2022-09-04T13:40:33.533Z,24.76
2022-09-04T13:45:44.746Z,25.27
2022-09-04T13:50:57.456Z,24.56
2022-09-04T13:56:06.454Z,24.48
2022-09-04T14:01:21.885Z,25.04
2022-09-04T14:06:33.145Z,25.45
2022-09-04T14:12:18.705Z,25.28
2022-09-04T14:17:33.865Z,25.56
2022-09-04T14:22:48.685Z,25.40
2022-09-04T14:28:03.532Z,24.63
2022-09-04T14:33:23.219Z,25.63
2022-09-04T14:38:54.697Z,25.07
2022-09-04T14:44:08.457Z,24.42
2022-09-04T14:49:24.597Z,24.40
2022-09-04T14:54:32.338Z,24.43
2022-09-04T14:59:42.587Z,24.33
2022-09-04T15:04:56.552Z,24.14
2022-09-04T15:10:16.827Z,24.48
2022-09-04T15:15:27.451Z,24.65
2022-09-04T15:20:37.832Z,24.09
2022-09-04T15:25:59.970Z,23.97
2022-09-04T15:31:16.184Z,24.01
2022-09-04T15:36:29.527Z,23.91
2022-09-04T15:41:41.089Z,23.73
2022-09-04T15:47:01.761Z,24.16
2022-09-04T15:52:26.135Z,23.62
2022-09-04T15:57:47.166Z,23.66
2022-09-04T16:02:59.097Z,23.47
2022-09-04T16:08:22.810Z,23.51
2022-09-04T16:13:43.334Z,23.58
2022-09-04T16:18:57.684Z,23.62
2022-09-04T16:24:10.706Z,23.63
2022-09-04T16:29:28.983Z,23.63
2022-09-04T16:34:40.354Z,23.53
2022-09-04T16:40:04.035Z,23.49
2022-09-04T16:45:18.922Z,23.45
2022-09-04T16:50:29.777Z,23.31
2022-09-04T16:55:44.750Z,23.27
2022-09-04T17:01:12.820Z,23.01
2022-09-04T17:06:25.243Z,22.74
2022-09-04T17:11:55.843Z,22.74
2022-09-04T17:17:17.005Z,22.64
2022-09-04T17:28:56.079Z,22.51
2022-09-04T17:29:08.974Z,22.37
2022-09-04T17:40:25.063Z,22.21
2022-09-04T17:40:42.300Z,22.10
2022-09-04T17:45:25.254Z,22.06
2022-09-04T17:50:30.815Z,21.85
2022-09-04T17:55:47.246Z,21.88
2022-09-04T18:01:14.301Z,21.88
2022-09-04T18:06:26.597Z,21.69
2022-09-04T18:11:37.334Z,21.31
2022-09-04T18:17:12.702Z,21.31
2022-09-04T18:22:33.183Z,21.12
2022-09-04T18:27:44.922Z,20.94
2022-09-04T18:37:09.302Z,20.84
2022-09-04T18:38:36.945Z,20.51
2022-09-04T18:50:25.100Z,20.36
2022-09-04T18:50:50.874Z,20.29
2022-09-04T18:54:56.745Z,20.14
2022-09-04T19:00:09.510Z,20.00
2022-09-04T19:05:19.118Z,19.99
2022-09-04T19:10:29.069Z,19.82
2022-09-04T19:15:51.538Z,19.74
2022-09-04T19:21:15.898Z,19.70
2022-09-04T19:26:32.463Z,19.44
2022-09-04T19:31:43.156Z,19.34
2022-09-04T19:37:13.531Z,19.06
2022-09-04T19:46:05.991Z,19.00
2022-09-04T19:48:04.957Z,18.99
2022-09-04T19:53:40.379Z,18.64
2022-09-04T19:58:56.138Z,18.91
2022-09-04T20:04:05.291Z,18.76
2022-09-04T20:09:20.540Z,18.41
2022-09-04T20:14:29.180Z,18.34
2022-09-04T20:19:45.013Z,18.21
2022-09-04T20:25:01.553Z,18.18
2022-09-04T20:30:12.540Z,18.20
2022-09-04T20:35:33.034Z,18.12
2022-09-04T20:40:45.190Z,18.33
2022-09-04T20:48:17.404Z,18.25
2022-09-04T20:52:56.056Z,17.92
2022-09-04T21:01:49.446Z,17.78
2022-09-04T21:03:08.358Z,17.75
2022-09-04T21:08:20.637Z,17.81
2022-09-04T21:13:34.243Z,17.95
2022-09-04T21:19:28.001Z,17.95
2022-09-04T21:24:59.848Z,17.65
2022-09-04T21:30:17.094Z,17.85
2022-09-04T21:35:26.777Z,17.94
2022-09-04T21:41:10.806Z,18.24
2022-09-04T21:46:48.787Z,18.20
2022-09-04T21:52:19.264Z,17.61
2022-09-04T22:02:27.989Z,17.65
2022-09-04T22:03:29.277Z,17.60
2022-09-04T22:13:31.762Z,17.49
2022-09-04T22:14:28.046Z,17.54
2022-09-04T22:20:09.054Z,17.48
2022-09-04T22:25:45.717Z,16.76
2022-09-04T22:31:15.046Z,16.55
2022-09-04T22:36:52.968Z,16.61
2022-09-04T22:42:24.539Z,16.80
2022-09-04T22:47:48.326Z,16.66
2022-09-04T22:53:27.037Z,16.69
2022-09-04T22:58:55.842Z,16.53
2022-09-04T23:04:43.885Z,16.63
2022-09-04T23:13:49.423Z,16.48
2022-09-04T23:15:55.641Z,16.28
2022-09-04T23:26:53.431Z,16.24
2022-09-04T23:27:28.324Z,16.18
2022-09-04T23:32:54.078Z,16.20
2022-09-04T23:38:38.243Z,16.10
2022-09-04T23:44:10.542Z,15.99
2022-09-04T23:49:35.413Z,16.24
2022-09-04T23:54:59.759Z,16.08
